Time;durP1;ratioP1;P1;durP2;ratioP2;P2;SDS_P1;SDS_P2;PMS_P1;PMS_P2;Temp;Humidity;BMP_temperature;BMP_pressure;BME280_temperature;BME280_humidity;BME280_pressure;Samples;Min_cycle;Max_cycle;Signal;HPM_P1;HPM_P2
2022/07/19 00:01:50;;;;;;;12.43;7.47;;;19.40;99.90;;;;;;5068162;28;20523;-82
2022/07/19 00:04:36;;;;;;;15.55;6.90;;;19.40;99.90;;;;;;5072298;28;20525;-82
2022/07/19 00:07:23;;;;;;;12.63;7.90;;;19.40;99.90;;;;;;5074170;28;20041;-82
2022/07/19 00:10:11;;;;;;;11.98;7.32;;;19.40;99.90;;;;;;5073295;28;20052;-81
2022/07/19 00:13:01;;;;;;;14.48;7.25;;;19.30;99.90;;;;;;5076853;28;20048;-84
2022/07/19 00:15:47;;;;;;;10.45;6.72;;;19.30;99.90;;;;;;5076288;28;20075;-81
2022/07/19 00:18:33;;;;;;;14.23;7.68;;;19.30;99.90;;;;;;5073751;28;20110;-82
2022/07/19 00:21:20;;;;;;;13.95;7.68;;;19.20;99.90;;;;;;5073284;28;20531;-82
2022/07/19 00:24:06;;;;;;;11.93;7.63;;;19.20;99.90;;;;;;5073289;28;20459;-83
2022/07/19 00:26:52;;;;;;;17.20;7.93;;;19.20;99.90;;;;;;5077009;28;20049;-82
2022/07/19 00:29:38;;;;;;;15.90;8.43;;;19.10;99.90;;;;;;5075570;28;20075;-83
2022/07/19 00:32:24;;;;;;;14.05;7.30;;;19.10;99.90;;;;;;5075686;28;20056;-82
2022/07/19 00:35:11;;;;;;;12.65;7.65;;;19.10;99.90;;;;;;5075795;28;20048;-82
2022/07/19 00:38:04;;;;;;;12.93;7.75;;;19.10;99.90;;;;;;5072023;28;20048;-82
2022/07/19 00:40:50;;;;;;;13.48;7.47;;;19.00;99.90;;;;;;5072021;28;20088;-82
2022/07/19 00:43:40;;;;;;;18.90;8.60;;;19.00;99.90;;;;;;5072080;28;20049;-83
2022/07/19 00:46:26;;;;;;;14.77;8.05;;;19.00;99.90;;;;;;5073934;28;20048;-83
2022/07/19 00:49:12;;;;;;;12.15;6.85;;;19.00;99.90;;;;;;5075645;28;20191;-83
2022/07/19 00:52:02;;;;;;;13.13;7.18;;;19.00;99.90;;;;;;5074376;28;20088;-83
2022/07/19 00:54:50;;;;;;;13.77;7.40;;;18.90;99.90;;;;;;5078490;28;20104;-82
2022/07/19 00:57:38;;;;;;;16.27;8.05;;;18.90;99.90;;;;;;5072448;28;20564;-84
2022/07/19 01:00:25;;;;;;;14.40;8.85;;;18.90;99.90;;;;;;5072337;28;20063;-83
2022/07/19 01:03:13;;;;;;;12.75;7.78;;;18.90;99.90;;;;;;5071432;28;20381;-83
2022/07/19 01:05:59;;;;;;;14.20;8.50;;;18.90;99.90;;;;;;5072854;28;20173;-82
2022/07/19 01:08:45;;;;;;;17.20;9.00;;;18.80;99.90;;;;;;5071721;28;20044;-80
2022/07/19 01:11:32;;;;;;;15.13;8.77;;;18.80;99.90;;;;;;5072020;28;20515;-83
2022/07/19 01:14:18;;;;;;;14.52;8.93;;;18.80;99.90;;;;;;5072811;28;20049;-83
2022/07/19 01:17:05;;;;;;;12.07;7.20;;;18.80;99.90;;;;;;5071115;28;20045;-83
2022/07/19 01:19:52;;;;;;;14.80;8.63;;;18.80;99.90;;;;;;5074082;28;20574;-83
2022/07/19 01:22:38;;;;;;;16.00;8.45;;;18.70;99.90;;;;;;5077759;28;20123;-83
2022/07/19 01:25:27;;;;;;;13.93;9.13;;;18.70;99.90;;;;;;5078888;28;20049;-82
2022/07/19 01:28:13;;;;;;;14.55;8.50;;;18.70;99.90;;;;;;5071948;28;20123;-82
2022/07/19 01:30:59;;;;;;;16.17;8.55;;;18.70;99.90;;;;;;5071040;28;20048;-83
2022/07/19 01:33:46;;;;;;;15.05;8.80;;;18.70;99.90;;;;;;5072192;28;20135;-83
2022/07/19 01:36:32;;;;;;;12.07;8.00;;;18.70;99.90;;;;;;5072272;28;20057;-84
2022/07/19 01:39:18;;;;;;;13.57;8.43;;;18.70;99.90;;;;;;5071605;28;20044;-82
2022/07/19 01:42:05;;;;;;;12.15;7.88;;;18.70;99.90;;;;;;5070752;28;20102;-84
2022/07/19 01:44:51;;;;;;;11.60;7.15;;;18.70;99.90;;;;;;5070200;28;20084;-82
2022/07/19 01:47:37;;;;;;;14.40;8.00;;;18.60;99.90;;;;;;5055947;28;20064;-83
2022/07/19 01:50:24;;;;;;;9.95;6.20;;;18.70;99.90;;;;;;5071567;28;20044;-82
2022/07/19 01:53:10;;;;;;;14.77;7.63;;;18.60;99.90;;;;;;5070155;28;20048;-81
2022/07/19 01:55:56;;;;;;;13.10;7.72;;;18.60;99.90;;;;;;5070109;28;20056;-82
2022/07/19 01:58:44;;;;;;;14.35;7.15;;;18.60;99.90;;;;;;5071821;28;20048;-83
2022/07/19 02:01:30;;;;;;;12.32;7.20;;;18.60;99.90;;;;;;5071697;28;20048;-83
2022/07/19 02:04:16;;;;;;;15.65;7.03;;;18.60;99.90;;;;;;5070753;28;20059;-83
2022/07/19 02:07:03;;;;;;;11.07;5.97;;;18.60;99.90;;;;;;5071335;28;20118;-83
2022/07/19 02:09:49;;;;;;;14.88;7.38;;;18.50;99.90;;;;;;5069715;28;20059;-83
2022/07/19 02:12:36;;;;;;;11.90;7.22;;;18.50;99.90;;;;;;5072894;28;20048;-83
2022/07/19 02:15:22;;;;;;;13.13;6.72;;;18.50;99.90;;;;;;5075577;28;20468;-83
2022/07/19 02:18:08;;;;;;;10.95;6.95;;;18.50;99.90;;;;;;5075473;28;20086;-82
2022/07/19 02:20:54;;;;;;;10.98;6.85;;;18.50;99.90;;;;;;5069824;28;20052;-81
2022/07/19 02:23:41;;;;;;;12.98;6.55;;;18.40;99.90;;;;;;5071049;28;20511;-82
2022/07/19 02:26:27;;;;;;;14.07;7.05;;;18.50;99.90;;;;;;5069882;28;20386;-83
2022/07/19 02:29:13;;;;;;;11.68;6.10;;;18.50;99.90;;;;;;5071377;28;20154;-83
2022/07/19 02:31:59;;;;;;;11.43;6.30;;;18.50;99.90;;;;;;5071461;28;20046;-83
2022/07/19 02:34:45;;;;;;;13.60;6.28;;;18.40;99.90;;;;;;5070983;28;20123;-82
2022/07/19 02:37:32;;;;;;;10.20;6.32;;;18.40;99.90;;;;;;5071736;28;20045;-82
2022/07/19 02:40:18;;;;;;;9.23;6.35;;;18.40;99.90;;;;;;5069545;28;20313;-82
2022/07/19 02:43:04;;;;;;;15.50;6.97;;;18.40;99.90;;;;;;5070996;28;20048;-83
2022/07/19 02:45:50;;;;;;;12.43;6.50;;;18.50;99.90;;;;;;5069540;28;20480;-82
2022/07/19 02:48:37;;;;;;;10.95;6.05;;;18.40;99.90;;;;;;5070845;28;20048;-83
2022/07/19 02:51:23;;;;;;;13.40;6.65;;;18.40;99.90;;;;;;5055812;28;20059;-84
2022/07/19 02:54:09;;;;;;;13.63;6.18;;;18.40;99.90;;;;;;5070362;28;20572;-83
2022/07/19 02:56:55;;;;;;;14.40;6.40;;;18.40;99.90;;;;;;5070604;28;20114;-82
2022/07/19 02:59:41;;;;;;;11.70;6.70;;;18.40;99.90;;;;;;5069932;28;20055;-83
2022/07/19 03:02:27;;;;;;;12.38;6.35;;;18.40;99.90;;;;;;5068755;28;20053;-84
2022/07/19 03:05:14;;;;;;;13.70;6.57;;;18.40;99.90;;;;;;5070740;28;20577;-83
2022/07/19 03:08:00;;;;;;;9.82;6.38;;;18.40;99.90;;;;;;5075736;28;20052;-83
2022/07/19 03:10:46;;;;;;;11.25;5.78;;;18.30;99.90;;;;;;5073024;28;20474;-82
2022/07/19 03:13:32;;;;;;;13.07;6.13;;;18.30;99.90;;;;;;5070945;28;20045;-83
2022/07/19 03:16:19;;;;;;;10.25;6.30;;;18.30;99.90;;;;;;5068553;28;20044;-84
2022/07/19 03:19:08;;;;;;;10.68;5.65;;;18.30;99.90;;;;;;5068487;28;20059;-82
2022/07/19 03:21:54;;;;;;;10.40;6.35;;;18.30;99.90;;;;;;5070128;28;20122;-83
2022/07/19 03:24:40;;;;;;;10.18;6.18;;;18.30;99.90;;;;;;5069367;28;20040;-82
2022/07/19 03:27:27;;;;;;;9.45;5.50;;;18.20;99.90;;;;;;5069249;28;20060;-83
2022/07/19 03:30:13;;;;;;;10.20;6.00;;;18.20;99.90;;;;;;5069184;28;20049;-83
2022/07/19 03:32:59;;;;;;;9.38;5.65;;;18.20;99.90;;;;;;5070172;28;20078;-83
2022/07/19 03:35:46;;;;;;;11.20;5.78;;;18.20;99.90;;;;;;5070338;28;20109;-82
2022/07/19 03:38:33;;;;;;;12.68;6.28;;;18.20;99.90;;;;;;5071485;28;20135;-83
2022/07/19 03:41:19;;;;;;;12.07;6.22;;;18.20;99.90;;;;;;5073990;28;20056;-83
2022/07/19 03:44:05;;;;;;;9.05;5.10;;;18.20;99.90;;;;;;5061430;28;20108;-82
2022/07/19 03:46:54;;;;;;;13.15;6.55;;;18.20;99.90;;;;;;5079456;28;20052;-81
2022/07/19 03:49:40;;;;;;;11.27;5.32;;;18.10;99.90;;;;;;5081256;28;20057;-83
2022/07/19 03:52:27;;;;;;;14.77;6.82;;;18.20;99.90;;;;;;5085415;28;20051;-83
2022/07/19 03:55:13;;;;;;;11.32;6.28;;;18.10;99.90;;;;;;5079528;28;20055;-83
2022/07/19 03:57:59;;;;;;;18.33;7.95;;;18.10;99.90;;;;;;5074370;28;20527;-83
2022/07/19 04:00:45;;;;;;;13.02;6.93;;;18.10;99.90;;;;;;5072542;28;20060;-83
2022/07/19 04:03:37;;;;;;;13.35;6.63;;;18.20;99.90;;;;;;5074075;28;20052;-84
2022/07/19 04:06:23;;;;;;;11.25;6.60;;;18.20;99.90;;;;;;5073793;28;20048;-83
2022/07/19 04:09:10;;;;;;;11.88;6.63;;;18.20;99.90;;;;;;5074678;28;20052;-83
2022/07/19 04:11:56;;;;;;;9.93;6.43;;;18.20;99.90;;;;;;5074782;28;20117;-83
2022/07/19 04:14:42;;;;;;;12.98;6.20;;;18.30;99.90;;;;;;5072428;28;20135;-83
2022/07/19 04:17:28;;;;;;;10.75;6.45;;;18.30;99.90;;;;;;5073229;28;20512;-83
2022/07/19 04:20:14;;;;;;;13.40;6.95;;;18.30;99.90;;;;;;5073356;28;20131;-84
2022/07/19 04:23:01;;;;;;;10.93;7.05;;;18.40;99.90;;;;;;5072356;28;20131;-83
2022/07/19 04:25:47;;;;;;;9.00;6.10;;;18.50;99.90;;;;;;5073877;28;20131;-83
2022/07/19 04:28:33;;;;;;;13.25;6.57;;;18.50;99.90;;;;;;5060142;28;20049;-83
2022/07/19 04:31:19;;;;;;;10.32;6.65;;;18.50;99.90;;;;;;5059099;28;20049;-82
2022/07/19 04:34:06;;;;;;;12.35;6.43;;;18.60;99.90;;;;;;5074033;28;20127;-82
2022/07/19 04:36:52;;;;;;;12.23;7.03;;;18.60;99.90;;;;;;5073926;28;20053;-82
2022/07/19 04:39:38;;;;;;;12.52;7.30;;;18.70;99.90;;;;;;5073052;28;20073;-83
2022/07/19 04:42:24;;;;;;;12.90;7.05;;;18.70;99.90;;;;;;5074958;28;20051;-83
2022/07/19 04:45:11;;;;;;;12.45;6.40;;;18.80;99.90;;;;;;5074059;28;20041;-82
2022/07/19 04:47:57;;;;;;;12.50;6.50;;;18.80;99.90;;;;;;5075552;28;20095;-81
2022/07/19 04:50:43;;;;;;;11.43;7.07;;;18.90;99.90;;;;;;5075079;28;20428;-83
2022/07/19 04:53:30;;;;;;;13.38;6.07;;;18.90;99.90;;;;;;5075913;28;20132;-82
2022/07/19 04:56:16;;;;;;;10.70;5.60;;;19.00;99.90;;;;;;5079137;28;20054;-82
2022/07/19 04:59:02;;;;;;;12.80;6.00;;;19.00;99.90;;;;;;5080488;28;20048;-82
2022/07/19 05:01:48;;;;;;;13.50;6.50;;;19.10;99.90;;;;;;5066026;28;20062;-83
2022/07/19 05:04:35;;;;;;;13.27;6.40;;;19.10;99.90;;;;;;5076973;28;20047;-82
2022/07/19 05:07:21;;;;;;;13.77;6.50;;;19.20;99.90;;;;;;5072163;28;20049;-83
2022/07/19 05:10:08;;;;;;;10.95;6.47;;;19.30;99.90;;;;;;5073164;28;20123;-83
2022/07/19 05:12:54;;;;;;;13.80;7.22;;;19.30;99.90;;;;;;5073109;28;20052;-84
2022/07/19 05:15:40;;;;;;;12.00;6.18;;;19.40;99.90;;;;;;5072930;28;20071;-84
2022/07/19 05:18:27;;;;;;;11.90;6.35;;;19.50;99.90;;;;;;5072358;28;20755;-83
2022/07/19 05:21:13;;;;;;;12.40;6.13;;;19.60;99.90;;;;;;5070907;28;20403;-82
2022/07/19 05:23:59;;;;;;;12.30;6.93;;;19.70;99.90;;;;;;5073434;28;20131;-83
2022/07/19 05:26:45;;;;;;;8.80;5.25;;;19.80;99.90;;;;;;5073524;28;20416;-83
2022/07/19 05:29:32;;;;;;;15.02;6.55;;;19.90;99.90;;;;;;5074272;28;20056;-83
2022/07/19 05:32:18;;;;;;;10.38;6.40;;;20.00;99.90;;;;;;5078760;28;20081;-83
2022/07/19 05:35:05;;;;;;;11.07;6.05;;;20.10;99.90;;;;;;5078642;28;20275;-83
2022/07/19 05:37:51;;;;;;;10.02;5.90;;;20.20;99.90;;;;;;5074759;28;20055;-83
2022/07/19 05:40:37;;;;;;;8.98;5.50;;;20.30;99.90;;;;;;5073216;28;20052;-83
2022/07/19 05:43:24;;;;;;;9.43;5.05;;;20.40;99.90;;;;;;5060090;28;20062;-83
2022/07/19 05:46:10;;;;;;;11.90;5.10;;;20.50;99.90;;;;;;5044208;28;20055;-83
2022/07/19 05:48:56;;;;;;;10.18;5.22;;;20.70;99.90;;;;;;5072391;28;20052;-82
2022/07/19 05:51:43;;;;;;;10.57;5.53;;;20.80;99.90;;;;;;5070946;28;20507;-83
2022/07/19 05:54:29;;;;;;;9.50;5.05;;;20.90;99.90;;;;;;5057688;28;20135;-83
2022/07/19 05:57:16;;;;;;;12.73;5.00;;;21.00;99.90;;;;;;5071767;28;20506;-83
2022/07/19 06:00:03;;;;;;;9.27;4.90;;;21.20;99.90;;;;;;5070470;28;20113;-82
2022/07/19 06:02:50;;;;;;;8.07;4.50;;;21.30;99.90;;;;;;5069528;28;20411;-83
2022/07/19 06:05:36;;;;;;;9.50;4.30;;;21.50;99.90;;;;;;5071224;28;20067;-81
2022/07/19 06:08:22;;;;;;;12.48;5.05;;;21.60;99.90;;;;;;5071502;28;20044;-83
2022/07/19 06:11:09;;;;;;;6.72;4.22;;;21.80;99.90;;;;;;5071383;28;20052;-83
2022/07/19 06:13:55;;;;;;;10.65;5.18;;;21.90;99.90;;;;;;5071862;28;20094;-82
2022/07/19 06:16:41;;;;;;;7.55;4.60;;;22.00;99.90;;;;;;5071672;28;20103;-84
2022/07/19 06:19:27;;;;;;;8.07;4.93;;;22.20;99.90;;;;;;5070414;28;20052;-83
2022/07/19 06:22:14;;;;;;;9.57;4.22;;;22.30;99.90;;;;;;5072036;28;20045;-83
2022/07/19 06:25:00;;;;;;;7.95;3.90;;;22.50;99.90;;;;;;5074923;28;20041;-82
2022/07/19 06:27:46;;;;;;;8.95;3.85;;;22.70;99.90;;;;;;5083034;28;20409;-82
2022/07/19 06:30:33;;;;;;;9.00;4.35;;;22.80;99.90;;;;;;5072263;28;20060;-84
2022/07/19 06:33:19;;;;;;;8.95;4.38;;;23.00;99.90;;;;;;5071490;28;20491;-84
2022/07/19 06:36:05;;;;;;;9.25;4.68;;;23.10;99.90;;;;;;5071350;28;20074;-84
2022/07/19 06:38:52;;;;;;;8.73;4.35;;;23.30;99.90;;;;;;5071606;28;20082;-83
2022/07/19 06:41:38;;;;;;;9.68;4.55;;;23.40;99.90;;;;;;5057175;28;20097;-83
2022/07/19 06:44:24;;;;;;;9.90;5.07;;;23.40;99.40;;;;;;5071020;28;20146;-82
2022/07/19 06:47:10;;;;;;;8.55;4.18;;;23.40;99.30;;;;;;5072024;28;20488;-84
2022/07/19 06:49:56;;;;;;;12.82;4.88;;;23.60;99.20;;;;;;5071661;28;20129;-83
2022/07/19 06:52:43;;;;;;;10.18;4.32;;;23.70;99.20;;;;;;5061646;28;20044;-81
2022/07/19 06:55:29;;;;;;;10.52;4.85;;;23.90;99.20;;;;;;5078377;28;20048;-83
2022/07/19 06:58:16;;;;;;;8.90;4.32;;;24.00;99.30;;;;;;5079439;28;20096;-82
2022/07/19 07:01:03;;;;;;;9.80;4.50;;;24.20;99.20;;;;;;5070942;28;20468;-81
2022/07/19 07:03:52;;;;;;;6.68;4.22;;;24.30;99.20;;;;;;5070627;28;20508;-81
2022/07/19 07:06:38;;;;;;;13.07;4.82;;;24.50;99.00;;;;;;5069234;28;20055;-84
2022/07/19 07:09:25;;;;;;;8.93;4.00;;;24.60;98.90;;;;;;5070561;28;20072;-82
2022/07/19 07:12:11;;;;;;;7.43;4.18;;;24.80;98.90;;;;;;5056207;28;20049;-83
2022/07/19 07:14:57;;;;;;;7.00;3.30;;;24.90;98.60;;;;;;5069500;28;20526;-81
2022/07/19 07:17:44;;;;;;;6.97;3.65;;;25.10;98.30;;;;;;5070312;28;20056;-81
2022/07/19 07:20:30;;;;;;;8.65;4.07;;;25.30;98.10;;;;;;5069660;28;20090;-83
2022/07/19 07:23:16;;;;;;;8.90;3.67;;;25.50;97.60;;;;;;5055058;28;20526;-82
2022/07/19 07:26:03;;;;;;;8.38;3.28;;;25.60;97.60;;;;;;5068970;28;20500;-84
2022/07/19 07:28:49;;;;;;;8.27;3.40;;;25.80;97.60;;;;;;5070105;28;20040;-79
2022/07/19 07:31:37;;;;;;;6.85;3.38;;;26.00;97.30;;;;;;5069677;28;20046;-82
2022/07/19 07:34:24;;;;;;;7.30;3.70;;;26.20;96.70;;;;;;5070717;28;20106;-82
2022/07/19 07:37:10;;;;;;;8.93;3.75;;;26.40;96.60;;;;;;5069259;28;20076;-83
2022/07/19 07:39:56;;;;;;;6.78;3.50;;;26.60;96.10;;;;;;5067690;28;20059;-83
2022/07/19 07:42:43;;;;;;;8.48;3.28;;;26.70;95.60;;;;;;5068956;28;20044;-84
2022/07/19 07:45:30;;;;;;;6.32;3.05;;;26.90;95.20;;;;;;5068114;28;20052;-84
2022/07/19 07:48:16;;;;;;;6.18;3.13;;;27.00;95.10;;;;;;5070035;28;20053;-84
2022/07/19 07:51:02;;;;;;;6.90;3.00;;;27.20;95.10;;;;;;5069852;28;20041;-83
2022/07/19 07:53:49;;;;;;;6.45;2.75;;;27.40;95.00;;;;;;5071794;28;20474;-82
2022/07/19 07:56:35;;;;;;;5.75;2.70;;;27.60;94.80;;;;;;5071325;28;20040;-83
2022/07/19 07:59:21;;;;;;;6.35;3.10;;;27.70;94.50;;;;;;5069941;28;20143;-80
2022/07/19 08:02:08;;;;;;;7.65;3.05;;;27.80;94.30;;;;;;5070687;28;20100;-84
2022/07/19 08:04:54;;;;;;;8.93;3.38;;;28.10;94.50;;;;;;5070297;28;20076;-84
2022/07/19 08:07:40;;;;;;;8.88;4.05;;;28.20;94.10;;;;;;5071155;28;20086;-83
2022/07/19 08:10:31;;;;;;;8.30;3.70;;;28.40;93.90;;;;;;5068834;28;20052;-82
2022/07/19 08:13:18;;;;;;;7.28;3.58;;;28.40;93.30;;;;;;5071041;28;20519;-81
2022/07/19 08:16:04;;;;;;;8.30;3.78;;;28.60;93.40;;;;;;5055546;28;20401;-83
2022/07/19 08:18:51;;;;;;;6.82;2.92;;;28.80;93.40;;;;;;5070331;28;20044;-82
2022/07/19 08:21:37;;;;;;;6.05;2.50;;;29.00;93.40;;;;;;5055044;28;20892;-80
2022/07/19 08:24:23;;;;;;;5.57;3.50;;;29.20;93.20;;;;;;5069255;28;20060;-83
2022/07/19 08:27:09;;;;;;;6.65;2.75;;;29.30;92.70;;;;;;5073539;28;20135;-81
2022/07/19 08:29:55;;;;;;;10.75;4.35;;;29.50;92.50;;;;;;5045767;28;20048;-83
2022/07/19 08:32:41;;;;;;;7.75;2.92;;;29.70;92.50;;;;;;5076890;28;20048;-84
2022/07/19 08:35:28;;;;;;;9.88;3.13;;;29.90;92.10;;;;;;5079107;28;20127;-84
2022/07/19 08:38:14;;;;;;;7.88;3.25;;;30.10;91.70;;;;;;5077497;28;20408;-84
2022/07/19 08:41:02;;;;;;;5.78;2.25;;;30.20;91.30;;;;;;5064217;28;20053;-84
2022/07/19 08:43:50;;;;;;;7.13;2.97;;;30.40;90.90;;;;;;5075315;28;20052;-82
2022/07/19 08:46:36;;;;;;;7.97;2.75;;;30.50;90.70;;;;;;5072521;28;20052;-83
2022/07/19 08:49:23;;;;;;;9.23;3.15;;;30.60;90.30;;;;;;5075476;28;20041;-82
2022/07/19 08:52:10;;;;;;;8.40;2.83;;;30.90;90.40;;;;;;5072053;28;20480;-82
2022/07/19 08:54:56;;;;;;;5.78;2.38;;;30.90;89.40;;;;;;5073213;28;20080;-83
2022/07/19 08:57:57;;;;;;;7.57;2.55;;;31.10;88.60;;;;;;5072162;28;20048;-79
2022/07/19 09:00:45;;;;;;;7.25;2.67;;;31.10;86.20;;;;;;5072969;28;20496;-80
2022/07/19 09:03:31;;;;;;;6.55;2.80;;;31.30;86.60;;;;;;5058641;28;20045;-83
2022/07/19 09:06:17;;;;;;;6.88;2.97;;;31.50;86.40;;;;;;5073961;28;20053;-83
2022/07/19 09:09:04;;;;;;;4.13;2.15;;;31.80;87.30;;;;;;5057829;28;20151;-80
2022/07/19 09:11:52;;;;;;;5.20;2.35;;;32.00;86.30;;;;;;5058389;28;20054;-83
2022/07/19 09:14:41;;;;;;;5.05;2.20;;;32.30;85.40;;;;;;5072794;28;20397;-84
2022/07/19 09:17:29;;;;;;;5.30;2.38;;;32.40;83.00;;;;;;5072157;28;20085;-83
2022/07/19 09:20:26;;;;;;;6.07;2.30;;;32.50;81.10;;;;;;5071637;28;20053;-82
2022/07/19 09:23:13;;;;;;;4.85;2.15;;;32.50;78.20;;;;;;5071071;28;20087;-80
2022/07/19 09:26:02;;;;;;;5.47;2.20;;;32.70;78.80;;;;;;5070995;28;20057;-81
2022/07/19 09:28:49;;;;;;;6.18;2.58;;;32.90;75.60;;;;;;5072981;28;20415;-84
2022/07/19 09:31:35;;;;;;;5.40;2.55;;;32.70;73.30;;;;;;5073114;28;20097;-82
2022/07/19 09:34:33;;;;;;;6.65;2.20;;;32.90;73.30;;;;;;5077384;28;20105;-83
2022/07/19 09:37:22;;;;;;;5.85;2.10;;;33.20;72.80;;;;;;5075972;28;20060;-84
2022/07/19 09:40:08;;;;;;;5.95;1.83;;;33.40;71.50;;;;;;5076597;28;20041;-84
2022/07/19 09:42:55;;;;;;;7.18;2.25;;;33.40;70.30;;;;;;5074571;28;20052;-83
2022/07/19 09:45:41;;;;;;;6.22;2.30;;;33.40;70.80;;;;;;5074126;28;20048;-80
2022/07/19 09:48:43;;;;;;;5.28;2.10;;;33.60;69.90;;;;;;5075678;28;20052;-82
2022/07/19 09:51:32;;;;;;;5.43;1.77;;;33.80;67.00;;;;;;5073121;28;20079;-82
2022/07/19 09:54:29;;;;;;;6.90;2.03;;;34.00;65.40;;;;;;5072555;28;20048;-81
2022/07/19 09:57:24;;;;;;;3.38;1.70;;;34.30;63.10;;;;;;5073844;28;20083;-81
2022/07/19 10:00:13;;;;;;;8.35;2.08;;;34.40;61.80;;;;;;5072902;28;20092;-82
2022/07/19 10:03:01;;;;;;;5.38;2.63;;;34.40;63.50;;;;;;5058155;28;20070;-84
2022/07/19 10:05:48;;;;;;;5.13;1.80;;;34.60;62.80;;;;;;5073346;28;20060;-82
2022/07/19 10:08:35;;;;;;;5.80;1.95;;;34.70;59.80;;;;;;5075752;28;20045;-84
2022/07/19 10:11:21;;;;;;;6.40;2.15;;;34.70;57.90;;;;;;5075562;28;20052;-85
2022/07/19 10:14:09;;;;;;;3.65;1.67;;;34.80;58.30;;;;;;5075568;28;20101;-82
2022/07/19 10:17:05;;;;;;;5.30;2.15;;;34.90;56.80;;;;;;5073708;28;20057;-84
2022/07/19 10:19:53;;;;;;;4.88;1.40;;;35.20;56.10;;;;;;5073469;28;20052;-82
2022/07/19 10:22:40;;;;;;;4.05;1.65;;;35.30;55.00;;;;;;5073545;28;20051;-82
2022/07/19 10:25:39;;;;;;;4.53;1.92;;;35.40;52.80;;;;;;5075423;28;20048;-80
2022/07/19 10:28:43;;;;;;;3.40;1.60;;;35.60;51.80;;;;;;5075659;28;20048;-82
2022/07/19 10:31:31;;;;;;;6.53;1.90;;;35.70;51.30;;;;;;5080406;28;20451;-81
2022/07/19 10:34:23;;;;;;;3.75;2.10;;;35.90;52.50;;;;;;5076007;28;20060;-82
2022/07/19 10:37:09;;;;;;;5.28;1.83;;;36.20;50.90;;;;;;5070405;28;20044;-79
2022/07/19 10:39:59;;;;;;;6.43;2.20;;;36.30;50.10;;;;;;5070910;28;20078;-79
2022/07/19 10:43:15;;;;;;;3.97;1.52;;;36.30;48.10;;;;;;5070048;28;20059;-79
2022/07/19 10:46:04;;;;;;;4.90;1.70;;;36.40;48.10;;;;;;5066685;28;20098;-82
2022/07/19 10:48:50;;;;;;;4.35;1.80;;;36.80;48.90;;;;;;5070460;28;20044;-80
2022/07/19 10:51:39;;;;;;;5.05;1.63;;;36.70;47.00;;;;;;5069535;28;20049;-79
2022/07/19 10:54:25;;;;;;;9.27;2.30;;;36.90;48.60;;;;;;5070335;28;20071;-81
2022/07/19 10:57:31;;;;;;;4.60;1.60;;;36.90;47.90;;;;;;5070216;28;20837;-81
2022/07/19 11:00:22;;;;;;;3.97;1.85;;;37.10;46.60;;;;;;5069926;28;20056;-79
2022/07/19 11:03:21;;;;;;;3.83;1.55;;;37.20;45.80;;;;;;5071348;28;20052;-84
2022/07/19 11:06:07;;;;;;;6.50;1.90;;;37.50;45.40;;;;;;5071237;28;20062;-82
2022/07/19 11:08:56;;;;;;;4.03;1.45;;;37.30;45.70;;;;;;5070546;28;20515;-78
2022/07/19 11:11:42;;;;;;;2.95;1.30;;;37.50;45.30;;;;;;5055527;28;20048;-81
2022/07/19 11:14:29;;;;;;;4.70;1.60;;;37.50;44.70;;;;;;5071317;28;20416;-82
2022/07/19 11:17:15;;;;;;;3.75;1.60;;;37.80;44.60;;;;;;5074088;28;20052;-82
2022/07/19 11:20:11;;;;;;;7.72;1.45;;;38.10;44.40;;;;;;5070369;28;20049;-79
2022/07/19 11:22:59;;;;;;;3.72;1.48;;;38.00;43.40;;;;;;5070068;28;20055;-81
2022/07/19 11:25:46;;;;;;;4.75;1.10;;;38.20;42.60;;;;;;5069158;28;20499;-80
2022/07/19 11:28:32;;;;;;;3.00;1.15;;;38.20;42.10;;;;;;5069797;28;20362;-80
2022/07/19 11:31:23;;;;;;;3.00;1.30;;;38.40;41.30;;;;;;5068760;28;20173;-80
2022/07/19 11:34:11;;;;;;;3.10;1.55;;;38.10;42.10;;;;;;5069715;28;20051;-84
2022/07/19 11:36:58;;;;;;;3.05;1.40;;;38.30;41.20;;;;;;5070071;28;20087;-85
2022/07/19 11:39:49;;;;;;;5.53;2.05;;;38.40;41.10;;;;;;5069104;28;20123;-86
2022/07/19 11:42:44;;;;;;;3.28;1.30;;;38.70;41.50;;;;;;5070355;28;20059;-83
2022/07/19 11:45:30;;;;;;;4.55;1.40;;;39.00;41.40;;;;;;5069763;28;20056;-80
2022/07/19 11:48:28;;;;;;;5.38;1.70;;;39.30;41.50;;;;;;5069119;28;20079;-83
2022/07/19 11:51:17;;;;;;;3.63;1.30;;;39.70;39.80;;;;;;5071558;28;20058;-81
2022/07/19 11:54:06;;;;;;;4.65;1.15;;;39.60;40.00;;;;;;5069558;28;20052;-80
2022/07/19 11:56:52;;;;;;;3.80;1.15;;;39.30;40.30;;;;;;5070627;28;20522;-84
2022/07/19 11:59:41;;;;;;;5.22;1.38;;;39.50;38.20;;;;;;5073922;28;20135;-81
2022/07/19 12:02:27;;;;;;;4.82;1.33;;;39.90;39.40;;;;;;5076311;28;20049;-83
2022/07/19 12:05:14;;;;;;;3.97;1.23;;;40.10;40.70;;;;;;5074897;28;20094;-80
2022/07/19 12:08:06;;;;;;;3.20;1.25;;;40.30;39.30;;;;;;5072538;28;20040;-83
2022/07/19 12:10:53;;;;;;;3.20;1.10;;;40.50;40.00;;;;;;5075177;28;20049;-81
2022/07/19 12:13:43;;;;;;;4.82;0.93;;;40.80;39.70;;;;;;5075187;28;20072;-83
2022/07/19 12:16:29;;;;;;;8.23;1.50;;;41.00;39.80;;;;;;5077328;28;20063;-80
2022/07/19 12:19:17;;;;;;;3.05;1.27;;;41.10;38.20;;;;;;5075125;28;20416;-80
2022/07/19 12:22:03;;;;;;;5.72;1.88;;;41.20;38.40;;;;;;5075192;28;20799;-85
2022/07/19 12:24:50;;;;;;;4.78;1.33;;;41.30;38.70;;;;;;5076806;28;20072;-80
2022/07/19 12:27:37;;;;;;;7.90;1.60;;;41.30;37.00;;;;;;5074473;28;20048;-80
2022/07/19 12:30:23;;;;;;;3.95;1.00;;;41.50;37.10;;;;;;5078388;28;20041;-83
2022/07/19 12:33:11;;;;;;;3.03;0.90;;;41.60;37.00;;;;;;5077228;28;20048;-82
2022/07/19 12:35:58;;;;;;;2.33;0.95;;;41.70;36.60;;;;;;5076132;28;20416;-83
2022/07/19 12:38:44;;;;;;;5.65;1.55;;;41.90;36.60;;;;;;5079604;28;20044;-82
2022/07/19 12:41:30;;;;;;;5.95;1.10;;;42.20;36.90;;;;;;5080157;28;20108;-85
2022/07/19 12:44:17;;;;;;;5.22;1.30;;;42.40;36.30;;;;;;5062231;28;20049;-81
2022/07/19 12:47:03;;;;;;;3.40;1.08;;;42.50;35.50;;;;;;5072451;28;20504;-84
2022/07/19 12:49:49;;;;;;;3.67;1.10;;;42.20;35.10;;;;;;5073587;28;20127;-85
2022/07/19 12:52:36;;;;;;;2.67;1.10;;;42.20;34.90;;;;;;5059251;28;20445;-80
2022/07/19 12:55:23;;;;;;;4.78;1.30;;;42.40;36.00;;;;;;5074231;28;20117;-79
2022/07/19 12:58:12;;;;;;;2.40;0.98;;;42.60;34.80;;;;;;5073247;28;20496;-80
2022/07/19 13:00:58;;;;;;;2.92;0.90;;;42.80;34.10;;;;;;5073035;28;20106;-79
2022/07/19 13:04:25;;;;;;;3.60;0.85;;;42.70;34.50;;;;;;5072272;28;20052;-84
2022/07/19 13:07:13;;;;;;;4.45;0.90;;;42.80;35.50;;;;;;5073373;28;20044;-79
2022/07/19 13:09:59;;;;;;;2.80;0.90;;;42.90;33.60;;;;;;5058529;28;20063;-83
2022/07/19 13:12:46;;;;;;;3.78;1.10;;;43.00;33.80;;;;;;5071995;28;20063;-81
2022/07/19 13:15:32;;;;;;;3.97;1.13;;;43.10;33.60;;;;;;5075809;28;20048;-83
2022/07/19 13:18:19;;;;;;;1.80;0.88;;;42.90;34.60;;;;;;5077777;28;20491;-84
2022/07/19 13:21:07;;;;;;;2.30;1.00;;;43.20;34.50;;;;;;5074207;28;20060;-83
2022/07/19 13:32:00;;;;;;;2.35;1.00;;;43.60;31.90;;;;;;5073515;28;20172;-83
2022/07/19 13:34:46;;;;;;;6.05;1.25;;;44.00;32.90;;;;;;5072980;28;20068;-85
2022/07/19 13:37:32;;;;;;;3.47;0.93;;;44.00;32.80;;;;;;5070961;28;20048;-84
2022/07/19 13:40:19;;;;;;;3.78;1.00;;;44.00;33.30;;;;;;5070897;28;20403;-84
2022/07/19 13:43:05;;;;;;;3.75;1.00;;;44.20;33.70;;;;;;5072334;28;20056;-83
2022/07/19 13:45:51;;;;;;;4.32;0.90;;;44.40;34.40;;;;;;5073080;28;20048;-85
2022/07/19 13:48:38;;;;;;;6.40;1.77;;;44.40;34.20;;;;;;5074227;28;20153;-83
2022/07/19 13:51:25;;;;;;;4.72;1.02;;;44.30;34.00;;;;;;5072184;28;20515;-85
2022/07/19 13:54:14;;;;;;;4.45;1.20;;;44.40;33.90;;;;;;5072162;28;20044;-81
2022/07/19 13:57:00;;;;;;;3.15;1.05;;;44.80;33.50;;;;;;5073179;28;20047;-86
2022/07/19 13:59:47;;;;;;;2.53;0.80;;;44.90;32.70;;;;;;5074677;28;20040;-80
2022/07/19 14:02:33;;;;;;;4.78;1.20;;;45.10;32.50;;;;;;5073635;28;20140;-84
2022/07/19 14:05:19;;;;;;;4.70;1.00;;;45.30;32.20;;;;;;5073614;28;20056;-83
2022/07/19 14:08:06;;;;;;;3.13;0.95;;;45.60;31.10;;;;;;5077278;28;20040;-83
2022/07/19 14:10:53;;;;;;;3.63;1.20;;;45.70;31.30;;;;;;5071304;28;20056;-82
2022/07/19 14:13:39;;;;;;;3.15;0.75;;;46.00;31.90;;;;;;5070930;28;20045;-81
2022/07/19 14:16:26;;;;;;;3.20;1.00;;;46.10;31.50;;;;;;5072296;28;20411;-84
2022/07/19 14:19:13;;;;;;;2.95;0.90;;;46.20;31.10;;;;;;5071860;28;20503;-80
2022/07/19 14:21:59;;;;;;;2.70;0.85;;;46.40;30.40;;;;;;5069489;28;20048;-84
2022/07/19 14:24:45;;;;;;;4.10;1.17;;;46.50;31.00;;;;;;5071928;28;20053;-83
2022/07/19 14:27:31;;;;;;;3.80;1.20;;;46.70;31.30;;;;;;5075229;28;20071;-81
2022/07/19 14:30:17;;;;;;;4.50;1.00;;;46.80;30.80;;;;;;5073349;28;20127;-83
2022/07/19 14:33:07;;;;;;;4.40;1.15;;;46.70;30.00;;;;;;5075590;28;20048;-84
2022/07/19 14:35:53;;;;;;;4.03;1.08;;;47.00;30.80;;;;;;5071406;28;20063;-84